createdAt,value
2018-04-17T06:25:54.417Z,6.10
2018-04-17T06:26:55.128Z,5.70
2018-04-17T06:27:55.711Z,5.40
2018-04-17T06:28:56.271Z,5.50
2018-04-17T06:30:57.130Z,5.50
2018-04-17T06:31:57.731Z,5.30
2018-04-17T06:32:58.318Z,5.60
2018-04-17T06:40:16.949Z,4.50
2018-04-17T06:41:17.553Z,6.10
2018-04-17T06:42:18.179Z,5.80
2018-04-17T06:43:18.888Z,7.40
2018-04-17T06:44:35.115Z,6.50
2018-04-17T06:46:17.556Z,5.00
2018-04-17T06:48:25.481Z,3.80
2018-04-17T06:49:26.258Z,5.80
2018-04-17T06:50:26.909Z,5.70
2018-04-17T06:51:27.500Z,5.40
2018-04-17T06:52:28.799Z,5.90
2018-04-17T06:53:29.432Z,5.60
2018-04-17T06:54:30.018Z,5.80
2018-04-17T06:55:30.618Z,5.40
2018-04-17T06:56:31.192Z,5.80
2018-04-17T06:58:32.086Z,5.60
2018-04-17T06:59:32.675Z,5.40
2018-04-17T07:00:33.271Z,5.30
2018-04-17T07:01:33.852Z,5.40
2018-04-17T07:02:34.443Z,5.30
2018-04-17T07:03:35.047Z,5.70
2018-04-17T07:04:35.641Z,5.40
2018-04-17T07:05:36.260Z,5.70
2018-04-17T07:06:36.920Z,5.70
2018-04-17T07:07:37.512Z,5.60
2018-04-17T07:08:38.270Z,5.00
2018-04-17T07:09:38.820Z,6.10
2018-04-17T07:10:39.949Z,5.50
2018-04-17T07:11:40.596Z,5.60
2018-04-17T07:12:41.256Z,5.50
2018-04-17T07:13:41.828Z,5.80
2018-04-17T07:14:42.461Z,5.50
2018-04-17T07:15:43.051Z,5.50
2018-04-17T07:16:43.666Z,5.60
2018-04-17T07:17:44.263Z,5.80
2018-04-17T07:18:44.863Z,5.20
2018-04-17T07:20:45.776Z,6.00
2018-04-17T07:21:46.388Z,5.70
2018-04-17T07:22:46.975Z,5.30
2018-04-17T07:23:47.611Z,5.70
2018-04-17T07:24:48.217Z,5.20
2018-04-17T07:25:49.069Z,5.20
2018-04-17T07:26:49.694Z,5.70
2018-04-17T07:27:50.283Z,5.30
2018-04-17T07:28:50.890Z,5.20
2018-04-17T07:29:51.460Z,5.00
2018-04-17T07:31:52.342Z,5.50
2018-04-17T07:32:52.942Z,5.00
2018-04-17T07:33:53.514Z,5.40
2018-04-17T07:34:54.951Z,5.00
2018-04-17T07:35:55.552Z,5.30
2018-04-17T07:36:57.160Z,5.50
2018-04-17T07:37:57.795Z,5.40
2018-04-17T07:38:58.438Z,5.10
2018-04-17T07:39:59.013Z,4.90
2018-04-17T07:40:59.650Z,5.30
2018-04-17T07:42:00.243Z,5.40
2018-04-17T07:43:00.933Z,5.50
2018-04-17T07:44:02.115Z,5.60
2018-04-17T07:45:02.904Z,5.00
2018-04-17T07:46:03.476Z,5.90
2018-04-17T07:47:04.061Z,5.60
2018-04-17T07:48:04.649Z,5.10
2018-04-17T07:49:05.357Z,4.80
2018-04-17T07:50:05.940Z,5.20
2018-04-17T07:51:06.516Z,5.10
2018-04-17T07:52:07.099Z,4.80
2018-04-17T07:53:07.702Z,5.30
2018-04-17T07:54:08.281Z,5.30
2018-04-17T07:55:08.882Z,5.20
2018-04-17T07:56:09.440Z,5.30
2018-04-17T07:57:10.021Z,5.20
2018-04-17T07:58:10.674Z,5.20
2018-04-17T07:59:11.882Z,5.20
2018-04-17T08:00:12.469Z,5.20
2018-04-17T08:01:13.041Z,5.30
2018-04-17T08:02:13.640Z,5.50
2018-04-17T08:03:14.222Z,5.20
2018-04-17T08:04:14.836Z,5.60
2018-04-17T08:05:15.409Z,6.00
2018-04-17T08:06:16.016Z,5.90
2018-04-17T08:07:16.576Z,5.00
2018-04-17T08:08:17.189Z,5.90
2018-04-17T08:09:17.853Z,5.60
2018-04-17T08:10:18.466Z,5.30
2018-04-17T08:11:19.037Z,5.40
2018-04-17T08:12:19.654Z,5.50
2018-04-17T08:13:20.234Z,5.80
2018-04-17T08:14:20.845Z,5.90
2018-04-17T08:15:22.447Z,6.10
2018-04-17T08:16:23.595Z,5.90
2018-04-17T08:17:24.242Z,5.70
2018-04-17T08:18:24.815Z,6.00
2018-04-17T08:19:25.448Z,5.70
2018-04-17T08:20:26.082Z,5.30
2018-04-17T08:21:26.705Z,5.90
2018-04-17T08:22:27.368Z,6.60
2018-04-17T08:23:27.931Z,5.90
2018-04-17T08:24:28.537Z,5.70
2018-04-17T08:25:29.099Z,5.70
2018-04-17T08:26:29.705Z,5.50
2018-04-17T08:27:30.300Z,5.40
2018-04-17T08:28:30.900Z,6.00
2018-04-17T08:29:31.498Z,5.40
2018-04-17T08:31:32.347Z,5.10
2018-04-17T08:32:32.949Z,5.30
2018-04-17T08:33:33.535Z,5.00
2018-04-17T08:34:34.172Z,5.40
2018-04-17T08:35:34.744Z,5.10
2018-04-17T08:37:35.617Z,5.50
2018-04-17T08:38:36.204Z,5.10
2018-04-17T08:39:36.779Z,5.40
2018-04-17T08:40:37.381Z,4.60
2018-04-17T08:41:37.978Z,5.00
2018-04-17T08:42:38.575Z,5.70
2018-04-17T08:43:39.134Z,5.70
2018-04-17T08:44:39.752Z,5.30
2018-04-17T08:45:40.340Z,5.20
2018-04-17T08:46:40.935Z,5.90
2018-04-17T09:05:43.898Z,4.40
2018-04-17T09:06:44.506Z,6.40
2018-04-17T09:07:45.093Z,5.70
2018-04-17T09:08:45.791Z,5.60
2018-04-17T09:09:46.450Z,5.90
2018-04-17T09:10:47.090Z,5.50
2018-04-17T09:11:47.678Z,6.00
2018-04-17T09:12:48.377Z,7.00
2018-04-17T09:13:48.983Z,6.50
2018-04-17T09:14:49.569Z,6.00
2018-04-17T09:16:50.443Z,6.40
2018-04-17T09:17:51.039Z,6.90
2018-04-17T09:18:51.647Z,6.50
2018-04-17T09:19:52.250Z,6.50
2018-04-17T09:20:52.833Z,6.30
2018-04-17T09:21:53.445Z,5.90
2018-04-17T09:22:54.021Z,6.00
2018-04-17T09:23:54.661Z,6.20
2018-04-17T09:27:37.873Z,5.00
2018-04-17T09:28:13.459Z,6.10
2018-04-17T09:29:14.083Z,6.00
2018-04-17T09:30:14.758Z,6.70
2018-04-17T09:31:15.351Z,6.20
2018-04-17T09:32:15.955Z,6.00
2018-04-17T09:33:16.601Z,6.30
2018-04-17T09:34:17.396Z,6.10
2018-04-17T09:35:18.573Z,6.10
2018-04-17T09:36:19.228Z,6.20
2018-04-17T09:37:19.887Z,6.30
2018-04-17T09:38:20.502Z,6.20
2018-04-17T09:39:21.130Z,6.00
2018-04-17T09:40:21.698Z,6.50
2018-04-17T09:41:22.305Z,5.60
2018-04-17T09:42:22.898Z,5.90
2018-04-17T09:43:23.494Z,6.20
2018-04-17T09:44:24.062Z,5.90
2018-04-17T09:45:24.668Z,5.30
2018-04-17T09:46:25.262Z,5.60
2018-04-17T09:47:25.854Z,6.10
2018-04-17T09:48:26.450Z,5.80
2018-04-17T09:49:27.041Z,6.50
2018-04-17T09:50:27.617Z,6.30
2018-04-17T09:51:28.194Z,6.10
2018-04-17T09:52:28.785Z,5.90
2018-04-17T09:53:29.400Z,6.60
2018-04-17T09:54:30.010Z,6.50
2018-04-17T09:55:30.605Z,6.60
2018-04-17T09:57:31.543Z,6.50
2018-04-17T09:58:32.172Z,6.50
2018-04-17T09:59:32.767Z,6.20
2018-04-17T10:00:34.354Z,6.30
2018-04-17T10:01:34.973Z,5.80
2018-04-17T10:02:35.561Z,6.10
2018-04-17T10:03:36.222Z,5.80
2018-04-17T10:04:36.804Z,5.40
2018-04-17T10:05:37.383Z,5.20
2018-04-17T10:06:37.973Z,5.10
2018-04-17T10:07:38.591Z,5.40
2018-04-17T10:08:39.192Z,6.10
2018-04-17T10:09:39.879Z,5.50
2018-04-17T10:11:40.781Z,5.90
2018-04-17T10:12:41.446Z,5.50
2018-04-17T10:13:42.042Z,5.30
2018-04-17T10:14:42.619Z,5.30
2018-04-17T10:15:43.198Z,4.80
2018-04-17T10:16:43.769Z,4.90
2018-04-17T10:17:44.394Z,4.60
2018-04-17T10:19:45.283Z,4.60
2018-04-17T10:20:45.891Z,4.40
2018-04-17T10:21:46.539Z,4.60
2018-04-17T10:22:47.121Z,4.80
2018-04-17T10:23:47.778Z,4.70
2018-04-17T10:24:48.426Z,4.20
2018-04-17T10:25:49.032Z,4.10
2018-04-17T10:26:49.616Z,3.60
2018-04-17T10:27:50.215Z,3.40
2018-04-17T10:28:50.829Z,3.80
2018-04-17T10:29:51.448Z,3.50
2018-04-17T10:30:52.105Z,3.60
2018-04-17T10:31:52.672Z,4.20
2018-04-17T10:32:53.360Z,3.50
2018-04-17T10:33:54.029Z,3.60
2018-04-17T10:34:54.629Z,5.10
2018-04-17T10:35:55.271Z,4.40
2018-04-17T10:36:55.879Z,4.30
2018-04-17T10:37:56.513Z,4.10
2018-04-17T10:38:57.119Z,3.80
2018-04-17T10:39:57.750Z,4.00
2018-04-17T10:40:58.362Z,4.10
2018-04-17T10:41:58.966Z,3.90
2018-04-17T10:42:59.571Z,3.70
2018-04-17T10:44:00.211Z,3.60
2018-04-17T10:45:00.868Z,4.20
2018-04-17T10:46:01.478Z,4.40
2018-04-17T10:47:02.080Z,4.60
2018-04-17T10:48:02.668Z,4.80
2018-04-17T10:49:03.266Z,4.80
2018-04-17T10:50:03.901Z,4.30
2018-04-17T10:51:04.486Z,4.80
2018-04-17T10:52:05.072Z,5.20
2018-04-17T10:53:05.714Z,4.80
2018-04-17T10:54:06.283Z,5.40
2018-04-17T10:55:06.862Z,4.30
2018-04-17T10:57:07.751Z,4.10
2018-04-17T10:58:08.338Z,4.10
2018-04-17T10:59:08.901Z,5.20
2018-04-17T11:00:09.480Z,4.70
2018-04-17T11:02:10.336Z,5.00
2018-04-17T11:03:11.221Z,4.60
2018-04-17T11:04:11.796Z,4.10
2018-04-17T11:05:12.369Z,3.90
2018-04-17T11:06:12.948Z,4.00
2018-04-17T11:07:13.547Z,3.70
2018-04-17T11:08:14.185Z,3.90
2018-04-17T11:09:14.789Z,3.90
2018-04-17T11:10:15.430Z,3.80
2018-04-17T11:11:16.029Z,3.90
2018-04-17T11:12:17.531Z,3.20
2018-04-17T11:13:18.172Z,3.60
2018-04-17T11:14:18.744Z,3.80
2018-04-17T11:15:19.346Z,4.10
2018-04-17T11:16:19.955Z,4.30
2018-04-17T11:17:20.573Z,4.40
2018-04-17T11:18:21.180Z,4.60
2018-04-17T11:20:22.009Z,4.40
2018-04-17T11:21:22.581Z,4.00
2018-04-17T11:22:23.249Z,3.90
2018-04-17T11:23:23.869Z,3.80
2018-04-17T11:24:24.445Z,3.90
2018-04-17T11:25:25.009Z,3.60
2018-04-17T11:26:25.599Z,3.70
2018-04-17T11:27:26.194Z,3.60
2018-04-17T11:29:27.030Z,3.70
2018-04-17T11:30:27.784Z,4.00
2018-04-17T11:31:28.364Z,3.80
2018-04-17T11:32:28.959Z,3.50
2018-04-17T11:33:29.566Z,3.80
2018-04-17T11:34:30.279Z,3.60
2018-04-17T11:35:30.904Z,4.00
2018-04-17T11:36:31.462Z,4.50
2018-04-17T11:37:32.039Z,4.20
2018-04-17T11:38:32.654Z,3.90
2018-04-17T11:39:33.249Z,4.30
2018-04-17T11:40:33.817Z,4.20
2018-04-17T11:41:34.384Z,4.40
2018-04-17T11:42:34.948Z,4.00
2018-04-17T11:43:35.641Z,4.00
2018-04-17T11:44:36.236Z,3.50
2018-04-17T11:45:37.694Z,3.30
2018-04-17T11:47:38.576Z,3.20
2018-04-17T11:48:39.268Z,2.40
2018-04-17T11:49:39.866Z,3.00
2018-04-17T11:50:40.444Z,2.10
2018-04-17T11:51:41.023Z,2.00
2018-04-17T11:52:41.602Z,2.20
2018-04-17T11:53:42.217Z,2.70
2018-04-17T11:54:42.810Z,3.00
2018-04-17T11:55:43.402Z,2.60
2018-04-17T11:56:43.965Z,3.30
2018-04-17T11:57:44.573Z,3.30
2018-04-17T11:58:45.167Z,3.20
2018-04-17T11:59:45.744Z,3.20
2018-04-17T12:01:46.622Z,2.70
2018-04-17T12:02:47.231Z,2.80
2018-04-17T12:03:47.833Z,2.60
2018-04-17T12:04:48.422Z,2.70
2018-04-17T12:05:49.062Z,2.70
2018-04-17T12:06:49.736Z,2.40
2018-04-17T12:07:50.309Z,2.80
2018-04-17T12:08:50.908Z,2.60
2018-04-17T12:09:51.479Z,2.90
2018-04-17T12:10:52.085Z,2.60
2018-04-17T12:11:52.670Z,2.80
2018-04-17T12:12:53.273Z,2.80
2018-04-17T12:13:53.898Z,2.60
2018-04-17T12:14:54.460Z,2.80
2018-04-17T12:15:55.841Z,2.60
2018-04-17T12:16:56.427Z,2.60
2018-04-17T12:17:57.017Z,2.80
2018-04-17T12:18:57.599Z,2.60
2018-04-17T12:19:58.167Z,2.70
2018-04-17T12:20:58.751Z,2.40
2018-04-17T12:21:59.316Z,2.60
2018-04-17T12:22:59.879Z,2.50
2018-04-17T12:24:00.480Z,2.50
2018-04-17T12:25:01.077Z,2.50
2018-04-17T12:26:01.668Z,2.40
2018-04-17T12:27:02.259Z,2.60
2018-04-17T12:29:03.109Z,2.30
2018-04-17T12:31:03.959Z,2.50
2018-04-17T12:32:04.545Z,2.20
2018-04-17T12:33:05.095Z,2.10
2018-04-17T12:34:05.777Z,2.10
2018-04-17T12:35:06.350Z,2.10
2018-04-17T12:36:06.970Z,2.10
2018-04-17T12:37:07.537Z,2.30
2018-04-17T12:38:08.147Z,2.40
2018-04-17T12:39:08.732Z,2.00
2018-04-17T12:41:09.593Z,2.10
2018-04-17T12:42:10.187Z,1.90
2018-04-17T12:43:10.795Z,2.10
2018-04-17T12:44:11.425Z,2.10
2018-04-17T12:45:12.014Z,2.20
2018-04-17T12:46:12.596Z,1.90
2018-04-17T12:47:13.168Z,2.00
2018-04-17T12:48:13.764Z,1.90
2018-04-17T12:49:14.408Z,1.90
2018-04-17T12:50:14.987Z,2.10
2018-04-17T12:51:15.655Z,2.00
2018-04-17T12:52:16.238Z,2.20
2018-04-17T12:53:16.850Z,2.20
2018-04-17T12:54:17.479Z,2.20
2018-04-17T12:55:18.083Z,2.00
2018-04-17T12:56:18.689Z,2.50
2018-04-17T12:57:19.231Z,2.00
2018-04-17T12:58:19.839Z,1.90
2018-04-17T13:00:20.786Z,2.20
2018-04-17T13:02:21.649Z,2.10
2018-04-17T13:03:22.249Z,2.30
2018-04-17T13:04:22.842Z,2.10
2018-04-17T13:05:23.420Z,2.20
2018-04-17T13:06:24.098Z,2.50
2018-04-17T13:07:24.664Z,2.40
2018-04-17T13:09:25.563Z,3.20
2018-04-17T13:10:26.180Z,2.40
2018-04-17T13:11:26.757Z,2.60
2018-04-17T13:12:27.451Z,2.40
2018-04-17T13:13:28.079Z,2.50
2018-04-17T13:14:28.733Z,2.70
2018-04-17T13:15:29.383Z,2.50
2018-04-17T13:16:30.039Z,2.90
2018-04-17T13:17:30.615Z,2.70
2018-04-17T13:19:31.475Z,2.90
2018-04-17T13:20:32.174Z,2.90
2018-04-17T13:21:32.762Z,2.60
2018-04-17T13:22:33.345Z,2.70
2018-04-17T13:23:33.959Z,2.60
2018-04-17T13:24:34.542Z,2.50
2018-04-17T13:25:35.204Z,2.50
2018-04-17T13:26:35.856Z,2.40
2018-04-17T13:28:36.799Z,2.60
2018-04-17T13:29:37.440Z,2.90
2018-04-17T13:30:38.067Z,2.80
2018-04-17T13:31:38.653Z,2.60
2018-04-17T13:32:39.245Z,2.40
2018-04-17T13:33:39.880Z,2.70
2018-04-17T13:34:40.498Z,2.60
2018-04-17T13:35:41.095Z,2.50
2018-04-17T13:36:41.703Z,2.40
2018-04-17T13:37:42.321Z,2.10
2018-04-17T13:38:42.964Z,2.00
2018-04-17T13:39:43.555Z,2.40
2018-04-17T13:40:44.200Z,2.10
2018-04-17T13:41:44.823Z,2.00
2018-04-17T13:42:45.468Z,2.00
2018-04-17T13:43:46.045Z,2.20
2018-04-17T13:44:46.656Z,2.10
2018-04-17T13:45:47.268Z,2.10
2018-04-17T13:46:47.821Z,2.10
2018-04-17T13:47:48.443Z,1.90
2018-04-17T13:48:49.033Z,2.30
2018-04-17T13:50:49.903Z,2.20
2018-04-17T13:51:50.499Z,2.40
2018-04-17T13:52:51.126Z,2.00
2018-04-17T13:53:51.694Z,2.90
2018-04-17T13:54:52.331Z,2.40
2018-04-17T13:55:52.987Z,2.00
2018-04-17T13:56:53.600Z,2.10
2018-04-17T13:57:54.203Z,2.50
2018-04-17T13:58:54.795Z,2.20
2018-04-17T13:59:55.401Z,1.90
2018-04-17T14:00:56.028Z,2.00
2018-04-17T14:01:56.619Z,1.90
2018-04-17T14:02:57.250Z,1.90
2018-04-17T14:03:57.858Z,2.00
2018-04-17T14:04:58.454Z,2.20
2018-04-17T14:06:00.791Z,2.30
2018-04-17T14:07:01.442Z,2.30
2018-04-17T14:08:02.048Z,2.10
2018-04-17T14:09:02.650Z,2.10
2018-04-17T14:10:03.234Z,2.10
2018-04-17T14:11:03.949Z,2.30
2018-04-17T14:12:04.516Z,2.30
2018-04-17T14:13:05.105Z,2.70
2018-04-17T14:14:05.748Z,2.10
2018-04-17T14:15:06.345Z,2.10
2018-04-17T14:16:06.957Z,2.60
2018-04-17T14:17:07.519Z,2.10
2018-04-17T14:18:08.124Z,2.20
2018-04-17T14:19:08.682Z,2.30
2018-04-17T14:20:09.264Z,1.90
2018-04-17T14:22:10.187Z,2.00
2018-04-17T14:23:10.819Z,2.20
2018-04-17T14:24:11.426Z,1.90
2018-04-17T14:25:12.023Z,2.00
2018-04-17T14:26:12.596Z,2.00
2018-04-17T14:27:13.262Z,2.20
2018-04-17T14:28:15.283Z,2.10
2018-04-17T14:29:15.894Z,2.20
2018-04-17T14:30:16.461Z,2.30
2018-04-17T14:32:17.304Z,2.30
2018-04-17T14:34:18.162Z,2.00
2018-04-17T14:35:18.751Z,2.00
2018-04-17T14:36:19.340Z,2.20
2018-04-17T14:37:19.919Z,3.20
2018-04-17T14:38:20.497Z,2.30
2018-04-17T14:39:21.140Z,2.00
2018-04-17T14:40:21.741Z,2.10
2018-04-17T14:41:22.308Z,2.00
2018-04-17T14:42:22.962Z,2.00
2018-04-17T14:44:23.824Z,2.10
2018-04-17T14:45:24.394Z,2.30
2018-04-17T14:46:24.985Z,2.00
2018-04-17T14:47:25.586Z,2.40
2018-04-17T14:48:26.171Z,2.10
2018-04-17T14:49:26.744Z,2.10
2018-04-17T14:50:27.310Z,2.50
2018-04-17T14:51:27.926Z,2.30
2018-04-17T14:52:28.510Z,2.00
2018-04-17T14:53:29.112Z,2.20
2018-04-17T14:54:29.699Z,2.10
2018-04-17T14:55:30.312Z,2.10
2018-04-17T14:56:30.880Z,2.20
2018-04-17T14:57:31.483Z,2.00
2018-04-17T14:58:32.072Z,2.30
2018-04-17T14:59:32.664Z,1.90
2018-04-17T15:00:33.286Z,2.00
2018-04-17T15:01:33.863Z,1.90
2018-04-17T15:02:34.453Z,2.30
2018-04-17T15:03:35.045Z,2.40
2018-04-17T15:04:35.651Z,2.00
2018-04-17T15:05:36.264Z,2.00
2018-04-17T15:06:36.866Z,2.20
2018-04-17T15:07:37.530Z,2.10
2018-04-17T15:08:38.104Z,2.00
2018-04-17T15:09:38.733Z,1.90
2018-04-17T15:10:39.737Z,1.90
2018-04-17T15:11:40.483Z,2.40
2018-04-17T15:12:41.147Z,1.90
2018-04-17T15:13:41.820Z,2.30
2018-04-17T15:14:42.413Z,2.00
2018-04-17T15:15:43.011Z,2.10
2018-04-17T15:16:43.601Z,2.00
2018-04-17T15:17:44.213Z,2.10
2018-04-17T15:18:44.803Z,1.90
2018-04-17T15:19:45.553Z,2.10
2018-04-17T15:20:46.127Z,2.10
2018-04-17T15:21:46.925Z,2.10
2018-04-17T15:22:47.562Z,2.40
2018-04-17T15:23:48.139Z,2.40
2018-04-17T15:25:49.006Z,2.20
2018-04-17T15:26:49.565Z,2.40
2018-04-17T15:27:50.154Z,2.30
2018-04-17T15:28:50.718Z,2.30
2018-04-17T15:29:51.280Z,2.50
2018-04-17T15:31:52.169Z,2.10
2018-04-17T15:32:52.749Z,2.30
2018-04-17T15:33:53.347Z,2.10
2018-04-17T15:34:53.955Z,2.00
2018-04-17T15:35:54.696Z,2.10
2018-04-17T15:36:55.350Z,2.50
2018-04-17T15:37:55.958Z,2.40
2018-04-17T15:38:56.561Z,2.30
2018-04-17T15:39:57.125Z,2.00
2018-04-17T15:40:57.695Z,2.20
2018-04-17T15:41:58.360Z,2.50
2018-04-17T15:42:59.219Z,2.40
2018-04-17T15:43:59.867Z,2.50
2018-04-17T15:45:00.459Z,2.50
2018-04-17T15:46:01.080Z,2.40
2018-04-17T15:47:01.675Z,2.40
2018-04-17T15:48:02.296Z,2.10
2018-04-17T15:49:02.877Z,2.00
2018-04-17T15:50:03.451Z,2.00
2018-04-17T15:51:04.072Z,2.20
2018-04-17T15:52:04.667Z,2.00
2018-04-17T15:53:05.237Z,2.00
2018-04-17T15:54:05.853Z,2.40
2018-04-17T15:55:06.452Z,2.20
2018-04-17T15:56:07.026Z,2.20
2018-04-17T15:57:07.595Z,2.20
2018-04-17T15:58:09.348Z,2.20
2018-04-17T16:00:10.334Z,2.20
2018-04-17T16:01:11.530Z,2.30
2018-04-17T16:02:12.091Z,2.70
2018-04-17T16:03:12.703Z,2.20
2018-04-17T16:04:13.347Z,2.40
2018-04-17T16:05:13.908Z,2.30
2018-04-17T16:06:14.517Z,2.30
2018-04-17T16:07:15.102Z,2.20
2018-04-17T16:08:15.725Z,2.20
2018-04-17T16:09:16.287Z,2.20
2018-04-17T16:10:16.893Z,2.20
2018-04-17T16:11:17.484Z,2.10
2018-04-17T16:12:18.053Z,2.00
2018-04-17T16:13:18.697Z,2.30
2018-04-17T16:14:19.287Z,2.30
2018-04-17T16:15:20.069Z,2.20
2018-04-17T16:16:20.749Z,2.30
2018-04-17T16:17:21.477Z,2.20
2018-04-17T16:18:22.192Z,2.10
2018-04-17T16:19:22.822Z,2.40
2018-04-17T16:20:23.453Z,2.00
2018-04-17T16:21:24.081Z,2.30
2018-04-17T16:22:24.701Z,2.20
2018-04-17T16:23:25.348Z,2.30
2018-04-17T16:24:25.953Z,2.20
2018-04-17T16:26:26.801Z,2.20
2018-04-17T16:27:27.392Z,2.20
2018-04-17T16:28:28.038Z,1.90
2018-04-17T16:30:28.934Z,2.20
2018-04-17T16:31:29.556Z,2.40
2018-04-17T16:32:30.140Z,2.20
2018-04-17T16:33:30.828Z,2.30
2018-04-17T16:34:31.452Z,2.40
2018-04-17T16:35:32.022Z,2.10
2018-04-17T16:36:32.665Z,2.10
2018-04-17T16:37:33.291Z,2.30
2018-04-17T16:38:33.917Z,2.40
2018-04-17T16:39:34.500Z,2.60
2018-04-17T16:40:35.085Z,2.60
2018-04-17T16:41:35.697Z,2.60
2018-04-17T16:42:36.302Z,2.40
2018-04-17T16:43:36.887Z,2.20
2018-04-17T16:44:37.496Z,3.20
2018-04-17T16:45:38.063Z,3.30
2018-04-17T16:46:38.637Z,2.70
2018-04-17T16:47:39.944Z,2.90
2018-04-17T16:48:40.597Z,2.50
2018-04-17T16:49:41.268Z,2.50
2018-04-17T16:50:41.856Z,2.30
2018-04-17T16:51:42.413Z,2.20
2018-04-17T16:52:43.613Z,2.40
2018-04-17T16:53:44.254Z,2.30
2018-04-17T16:54:44.973Z,2.40
2018-04-17T16:55:46.544Z,2.20
2018-04-17T16:56:47.168Z,2.40
2018-04-17T16:57:47.758Z,2.50
2018-04-17T16:58:50.401Z,2.50
2018-04-17T16:59:50.961Z,2.40
2018-04-17T17:00:51.586Z,2.40
2018-04-17T17:01:52.223Z,2.30
2018-04-17T17:02:52.814Z,2.20
2018-04-17T17:03:53.464Z,2.30
2018-04-17T17:04:54.055Z,2.30
2018-04-17T17:05:54.627Z,2.50
2018-04-17T17:06:55.214Z,2.40
2018-04-17T17:07:55.792Z,2.50
2018-04-17T17:08:56.391Z,2.60
2018-04-17T17:09:56.970Z,2.20
2018-04-17T17:10:57.607Z,2.30
2018-04-17T17:11:58.174Z,2.30
2018-04-17T17:12:58.797Z,2.60
2018-04-17T17:13:59.609Z,2.50
2018-04-17T17:15:00.191Z,2.60
2018-04-17T17:16:00.827Z,2.40
2018-04-17T17:17:01.477Z,2.50
2018-04-17T17:18:02.074Z,2.30
